createdAt,value
2023-03-31T00:00:47.661Z,99096.47
2023-03-31T00:03:22.803Z,99096.09
2023-03-31T00:05:53.715Z,99102.88
2023-03-31T00:08:21.693Z,99102.06
2023-03-31T00:10:49.358Z,99104.13
2023-03-31T00:13:16.772Z,99110.31
2023-03-31T00:15:44.766Z,99100.63
2023-03-31T00:18:12.364Z,99090.75
2023-03-31T00:20:39.655Z,99085.25
2023-03-31T00:23:11.323Z,99099.41
2023-03-31T00:25:42.087Z,99080.13
2023-03-31T00:28:09.316Z,99108.44
2023-03-31T00:30:36.764Z,99092.22
2023-03-31T00:33:04.957Z,99090.97
2023-03-31T00:35:32.486Z,99087.00
2023-03-31T00:38:00.197Z,99096.69
2023-03-31T00:40:27.614Z,99083.72
2023-03-31T00:42:54.866Z,99099.22
2023-03-31T00:45:23.897Z,99102.56
2023-03-31T00:47:53.721Z,99083.38
2023-03-31T00:50:29.841Z,99106.69
2023-03-31T00:52:59.286Z,99114.16
2023-03-31T00:55:31.045Z,99071.06
2023-03-31T00:57:59.209Z,99085.59
2023-03-31T01:00:26.507Z,99091.41
2023-03-31T01:03:00.097Z,99079.91
2023-03-31T01:05:40.159Z,99098.50
2023-03-31T01:08:07.718Z,99097.97
2023-03-31T01:10:41.896Z,99091.22
2023-03-31T01:13:11.200Z,99082.75
2023-03-31T01:15:38.654Z,99087.84
2023-03-31T01:18:06.660Z,99092.91
2023-03-31T01:20:43.627Z,99083.00
2023-03-31T01:23:29.290Z,99089.25
2023-03-31T01:26:09.606Z,99074.66
2023-03-31T01:29:00.682Z,99068.41
2023-03-31T01:31:37.769Z,99081.16
2023-03-31T01:34:12.544Z,99082.38
2023-03-31T01:36:56.354Z,99082.81
2023-03-31T01:39:26.882Z,99071.84
2023-03-31T01:42:00.540Z,99066.16
2023-03-31T01:44:40.045Z,99071.69
2023-03-31T01:47:26.099Z,99054.19
2023-03-31T01:49:58.921Z,99082.38
2023-03-31T01:52:37.340Z,99085.97
2023-03-31T01:55:08.463Z,99071.03
2023-03-31T01:57:37.216Z,99078.63
2023-03-31T02:00:04.735Z,99075.66
2023-03-31T02:02:52.360Z,99072.34
2023-03-31T02:05:22.212Z,99054.25
2023-03-31T02:08:01.912Z,99073.00
2023-03-31T02:10:31.798Z,99060.56
2023-03-31T02:13:00.710Z,99100.56
2023-03-31T02:15:35.122Z,99090.56
2023-03-31T02:18:06.360Z,99063.47
2023-03-31T02:20:34.028Z,99058.88
2023-03-31T02:23:01.828Z,99072.16
2023-03-31T02:25:32.853Z,99078.69
2023-03-31T02:28:02.838Z,99058.47
2023-03-31T02:30:40.667Z,99065.34
2023-03-31T02:33:08.036Z,99071.25
2023-03-31T02:35:37.036Z,99087.69
2023-03-31T02:38:07.069Z,99073.25
2023-03-31T02:40:34.287Z,99074.25
2023-03-31T02:43:02.329Z,99117.00
2023-03-31T02:45:41.360Z,99082.19
2023-03-31T02:48:11.649Z,99066.97
2023-03-31T02:50:59.909Z,99064.69
2023-03-31T02:53:39.632Z,99067.50
2023-03-31T02:56:26.101Z,99065.50
2023-03-31T02:58:57.675Z,99066.91
2023-03-31T03:01:35.935Z,99083.69
2023-03-31T03:04:17.419Z,99079.94
2023-03-31T03:06:57.870Z,99075.56
2023-03-31T03:09:50.297Z,99078.22
2023-03-31T03:12:29.755Z,99078.41
2023-03-31T03:15:00.022Z,99091.75
2023-03-31T03:17:29.452Z,99112.38
2023-03-31T03:19:59.365Z,99069.00
2023-03-31T03:22:26.886Z,99078.63
2023-03-31T03:24:54.192Z,99055.84
2023-03-31T03:27:23.250Z,99072.13
2023-03-31T03:29:50.564Z,99053.47
2023-03-31T03:32:18.002Z,99076.66
2023-03-31T03:34:45.320Z,99071.88
2023-03-31T03:37:12.732Z,99068.63
2023-03-31T03:39:39.961Z,99096.25
2023-03-31T03:42:07.328Z,99073.47
2023-03-31T03:44:34.604Z,99084.72
2023-03-31T03:47:02.175Z,99043.59
2023-03-31T03:49:29.528Z,99052.63
2023-03-31T03:51:56.769Z,99045.41
2023-03-31T03:54:24.066Z,99049.53
2023-03-31T03:56:51.427Z,99033.25
2023-03-31T03:59:18.668Z,99058.34
2023-03-31T04:01:45.988Z,99055.72
2023-03-31T04:04:13.182Z,99054.75
2023-03-31T04:06:40.474Z,99033.72
2023-03-31T04:09:07.800Z,99046.91
2023-03-31T04:11:35.773Z,99029.88
2023-03-31T04:14:03.387Z,99042.69
2023-03-31T04:16:31.050Z,99027.31
2023-03-31T04:18:59.328Z,99036.34
2023-03-31T04:21:26.698Z,99026.91
2023-03-31T04:24:04.788Z,99032.53
2023-03-31T04:26:43.587Z,99031.63
2023-03-31T04:29:13.057Z,99052.75
2023-03-31T04:31:43.392Z,99030.66
2023-03-31T04:34:13.768Z,99049.34
2023-03-31T04:36:47.895Z,99027.91
2023-03-31T04:39:16.441Z,99035.59
2023-03-31T04:41:44.390Z,99031.59
2023-03-31T04:44:11.645Z,99030.44
2023-03-31T04:46:38.980Z,99037.41
2023-03-31T04:49:06.169Z,99063.56
2023-03-31T04:51:33.403Z,99027.44
2023-03-31T04:54:00.790Z,99046.06
2023-03-31T04:56:28.107Z,99049.44
2023-03-31T04:58:55.344Z,99048.44
2023-03-31T05:01:22.766Z,99090.50
2023-03-31T05:03:50.105Z,99015.97
2023-03-31T05:06:17.872Z,99031.72
2023-03-31T05:08:45.308Z,99044.34
2023-03-31T05:11:12.591Z,99066.91
2023-03-31T05:13:40.418Z,99057.91
2023-03-31T05:16:09.068Z,99032.13
2023-03-31T05:18:36.999Z,99024.03
2023-03-31T05:21:17.979Z,99029.34
2023-03-31T05:23:46.364Z,99041.97
2023-03-31T05:26:14.062Z,99040.00
2023-03-31T05:28:41.974Z,99029.63
2023-03-31T05:31:09.844Z,99039.94
2023-03-31T05:33:42.272Z,99032.66
2023-03-31T05:36:10.829Z,99039.09
2023-03-31T05:38:38.489Z,99029.09
2023-03-31T05:41:06.749Z,99041.44
2023-03-31T05:43:34.095Z,99047.25
2023-03-31T05:46:01.816Z,99015.03
2023-03-31T05:48:29.092Z,99024.44
2023-03-31T05:50:57.163Z,99041.53
2023-03-31T05:53:24.535Z,99020.59
2023-03-31T05:55:57.566Z,99032.06
2023-03-31T05:58:24.801Z,99035.53
2023-03-31T06:01:01.629Z,99124.44
2023-03-31T06:03:28.992Z,99032.31
2023-03-31T06:05:56.446Z,99019.06
2023-03-31T06:08:23.941Z,98983.38
2023-03-31T06:10:51.872Z,99044.34
2023-03-31T06:13:19.062Z,98996.56
2023-03-31T06:23:11.115Z,99005.47
2023-03-31T06:25:50.488Z,99012.81
2023-03-31T06:28:18.548Z,98970.91
2023-03-31T06:30:45.940Z,99001.25
2023-03-31T06:33:13.872Z,99016.59
2023-03-31T06:35:41.882Z,98982.91
2023-03-31T06:38:09.069Z,98994.06
2023-03-31T06:40:36.671Z,98978.94
2023-03-31T06:43:03.943Z,99000.53
2023-03-31T06:45:31.309Z,98967.88
2023-03-31T06:47:58.669Z,98999.94
2023-03-31T06:59:39.666Z,98969.03
2023-03-31T07:05:19.873Z,98983.59
2023-03-31T07:07:47.194Z,98967.88
2023-03-31T07:10:14.403Z,99004.66
2023-03-31T07:12:41.616Z,98938.38
2023-03-31T07:15:09.217Z,99005.38
2023-03-31T07:17:37.805Z,98943.13
2023-03-31T07:20:10.257Z,98977.63
2023-03-31T07:22:37.604Z,98959.81
2023-03-31T07:25:04.994Z,98943.78
2023-03-31T07:27:32.250Z,98932.09
2023-03-31T07:29:59.500Z,98931.03
2023-03-31T07:32:28.506Z,98936.34
2023-03-31T07:34:56.502Z,98962.13
2023-03-31T07:37:23.799Z,98935.94
2023-03-31T07:39:51.176Z,98969.53
2023-03-31T07:42:18.328Z,98921.84
2023-03-31T07:44:45.588Z,98963.34
2023-03-31T07:47:12.931Z,98926.00
2023-03-31T07:49:40.216Z,98931.00
2023-03-31T07:52:07.566Z,98960.16
2023-03-31T07:54:34.891Z,98920.38
2023-03-31T07:57:04.671Z,98918.97
2023-03-31T07:59:32.236Z,98907.78
2023-03-31T08:01:59.503Z,98944.63
2023-03-31T08:04:27.225Z,98921.41
2023-03-31T08:06:54.475Z,98974.00
2023-03-31T08:09:23.140Z,98932.16
2023-03-31T08:11:50.527Z,98912.94
2023-03-31T08:14:27.253Z,98881.94
2023-03-31T08:17:01.678Z,98905.28
2023-03-31T08:19:28.939Z,98882.59
2023-03-31T08:21:56.258Z,98904.84
2023-03-31T08:24:23.582Z,98967.84
2023-03-31T08:26:50.936Z,98908.28
2023-03-31T08:29:18.163Z,98899.84
2023-03-31T08:31:45.411Z,98880.84
2023-03-31T08:34:12.746Z,98911.38
2023-03-31T08:36:40.035Z,98865.81
2023-03-31T08:39:07.872Z,98874.78
2023-03-31T08:41:53.604Z,98859.34
2023-03-31T08:44:23.899Z,98885.91
2023-03-31T08:46:53.128Z,98869.00
2023-03-31T08:49:21.474Z,98892.22
2023-03-31T08:51:50.840Z,98900.16
2023-03-31T08:54:22.563Z,98931.47
2023-03-31T08:56:51.083Z,98905.84
2023-03-31T08:59:26.826Z,98940.59
2023-03-31T09:02:12.912Z,98861.44
2023-03-31T09:04:43.284Z,98933.22
2023-03-31T09:07:10.486Z,98874.72
2023-03-31T09:09:40.795Z,98852.44
2023-03-31T09:12:12.063Z,98859.38
2023-03-31T09:14:51.693Z,98861.25
2023-03-31T09:17:25.746Z,98878.94
2023-03-31T09:19:59.308Z,98933.03
2023-03-31T09:22:30.675Z,98909.00
2023-03-31T09:25:30.563Z,98875.28
2023-03-31T09:27:59.490Z,98868.41
2023-03-31T09:30:31.097Z,98859.38
2023-03-31T09:33:13.245Z,98856.66
2023-03-31T09:35:40.717Z,98863.94
2023-03-31T09:38:10.382Z,98890.81
2023-03-31T09:40:37.837Z,98887.19
2023-03-31T09:43:06.591Z,98821.72
2023-03-31T09:45:34.377Z,98829.06
2023-03-31T09:48:03.941Z,98830.28
2023-03-31T09:50:33.545Z,98867.59
2023-03-31T09:53:02.161Z,98809.59
2023-03-31T09:55:42.672Z,98803.41
2023-03-31T09:58:13.413Z,98876.28
2023-03-31T10:00:44.926Z,98848.78
2023-03-31T10:03:13.905Z,98856.34
2023-03-31T10:05:51.855Z,98831.22
2023-03-31T10:08:31.240Z,98826.03
2023-03-31T10:11:04.374Z,98886.09
2023-03-31T10:13:44.081Z,98836.44
2023-03-31T10:16:13.375Z,98850.22
2023-03-31T10:18:42.019Z,98851.78
2023-03-31T10:21:23.781Z,98812.94
2023-03-31T10:23:51.914Z,98838.53
2023-03-31T10:26:21.733Z,98839.94
2023-03-31T10:28:52.699Z,98823.94
2023-03-31T10:31:20.529Z,98838.84
2023-03-31T10:33:49.431Z,98797.59
2023-03-31T10:36:19.526Z,98775.78
2023-03-31T10:38:48.360Z,98829.50
2023-03-31T10:41:33.963Z,98777.84
2023-03-31T10:44:03.687Z,98796.16
2023-03-31T10:46:41.893Z,98796.00
2023-03-31T10:49:27.908Z,98762.69
2023-03-31T10:51:56.807Z,98769.00
2023-03-31T10:54:24.445Z,98812.13
2023-03-31T10:57:06.471Z,98808.94
2023-03-31T10:59:59.211Z,98832.53
2023-03-31T11:02:39.494Z,98775.78
2023-03-31T11:05:13.704Z,98811.66
2023-03-31T11:07:48.400Z,98770.72
2023-03-31T11:10:22.434Z,98790.63
2023-03-31T11:12:52.153Z,98773.22
2023-03-31T11:15:22.270Z,98758.72
2023-03-31T11:17:49.532Z,98803.28
2023-03-31T11:20:39.828Z,98782.59
2023-03-31T11:23:22.654Z,98814.63
2023-03-31T11:25:58.492Z,98823.31
2023-03-31T11:28:38.051Z,98781.78
2023-03-31T11:31:28.458Z,98779.03
2023-03-31T11:34:14.428Z,98753.34
2023-03-31T11:36:51.073Z,98751.94
2023-03-31T11:39:36.783Z,98782.09
2023-03-31T11:42:19.399Z,98727.31
2023-03-31T11:44:48.639Z,98731.84
2023-03-31T11:47:19.667Z,98762.03
2023-03-31T11:49:52.229Z,98784.50
2023-03-31T11:52:23.599Z,98780.03
2023-03-31T11:54:54.209Z,98731.81
2023-03-31T11:57:27.999Z,98791.09
2023-03-31T11:59:57.828Z,98781.44
2023-03-31T12:02:28.236Z,98733.31
2023-03-31T12:04:56.829Z,98711.63
2023-03-31T12:07:56.647Z,98734.72
2023-03-31T12:10:34.586Z,98714.63
2023-03-31T12:13:19.191Z,98686.81
2023-03-31T12:16:01.681Z,98755.25
2023-03-31T12:18:33.138Z,98701.06
2023-03-31T12:21:03.673Z,98716.06
2023-03-31T12:23:33.491Z,98702.09
2023-03-31T12:26:24.283Z,98712.22
2023-03-31T12:28:56.967Z,98705.31
2023-03-31T12:31:25.036Z,98715.41
2023-03-31T12:33:59.036Z,98720.66
2023-03-31T12:36:41.302Z,98714.22
2023-03-31T12:39:14.661Z,98720.81
2023-03-31T12:41:53.807Z,98730.47
2023-03-31T12:44:24.011Z,98741.50
2023-03-31T12:46:58.304Z,98710.25
2023-03-31T12:49:44.163Z,98742.31
2023-03-31T12:52:17.309Z,98713.88
2023-03-31T12:55:03.391Z,98721.63
2023-03-31T12:57:30.816Z,98735.84
2023-03-31T13:00:17.552Z,98717.19
2023-03-31T13:02:45.042Z,98676.47
2023-03-31T13:05:31.127Z,98695.88
2023-03-31T13:07:58.619Z,98681.53
2023-03-31T13:10:27.140Z,98698.25
2023-03-31T13:13:20.903Z,98691.47
2023-03-31T13:16:06.351Z,98679.78
2023-03-31T13:18:34.508Z,98695.09
2023-03-31T13:21:06.132Z,98720.72
2023-03-31T13:23:37.980Z,98699.81
2023-03-31T13:26:07.192Z,98697.66
2023-03-31T13:28:38.678Z,98691.59
2023-03-31T13:31:07.563Z,98709.06
2023-03-31T13:33:34.674Z,98685.31
2023-03-31T13:36:19.306Z,98727.50
2023-03-31T13:38:58.740Z,98672.13
2023-03-31T13:41:32.682Z,98674.66
2023-03-31T13:44:07.026Z,98686.03
2023-03-31T13:46:43.625Z,98632.03
2023-03-31T13:49:26.013Z,98684.00
2023-03-31T13:52:03.612Z,98698.03
2023-03-31T13:54:37.024Z,98682.72
2023-03-31T13:57:13.312Z,98663.56
2023-03-31T14:00:01.333Z,98726.00
2023-03-31T14:02:34.766Z,98677.66
2023-03-31T14:05:20.979Z,98686.41
2023-03-31T14:07:51.218Z,98684.56
2023-03-31T14:10:24.649Z,98685.66
2023-03-31T14:12:53.047Z,98668.56
2023-03-31T14:15:21.639Z,98684.75
2023-03-31T14:17:49.104Z,98727.78
2023-03-31T14:20:24.439Z,98698.34
2023-03-31T14:23:08.071Z,98684.91
2023-03-31T14:25:44.605Z,98659.78
2023-03-31T14:28:26.160Z,98649.16
2023-03-31T14:30:53.455Z,98662.13
2023-03-31T14:33:39.483Z,98677.56
2023-03-31T14:36:08.473Z,98679.06
2023-03-31T14:38:36.239Z,98643.84
2023-03-31T14:41:05.030Z,98629.06
2023-03-31T14:43:37.342Z,98631.88
2023-03-31T14:46:06.309Z,98651.13
2023-03-31T14:48:45.366Z,98669.09
2023-03-31T14:51:14.430Z,98656.53
2023-03-31T14:53:43.666Z,98634.97
2023-03-31T14:56:21.639Z,98635.28
2023-03-31T14:58:51.926Z,98636.25
2023-03-31T15:01:24.190Z,98657.91
2023-03-31T15:03:52.865Z,98633.22
2023-03-31T15:06:20.256Z,98656.88
2023-03-31T15:08:47.740Z,98680.00
2023-03-31T15:11:19.103Z,98685.66
2023-03-31T15:14:03.462Z,98671.81
2023-03-31T15:16:36.734Z,98665.88
2023-03-31T15:19:08.120Z,98675.56
2023-03-31T15:21:37.947Z,98640.34
2023-03-31T15:24:05.764Z,98661.78
2023-03-31T15:26:41.285Z,98666.00
2023-03-31T15:29:48.270Z,98647.84
2023-03-31T15:32:18.570Z,98632.34
2023-03-31T15:34:50.946Z,98642.25
2023-03-31T15:37:22.292Z,98643.75
2023-03-31T15:39:51.019Z,98622.94
2023-03-31T15:42:19.710Z,98625.78
2023-03-31T15:44:53.957Z,98634.91
2023-03-31T15:47:25.708Z,98661.63
2023-03-31T15:49:56.199Z,98638.69
2023-03-31T15:52:27.685Z,98660.66
2023-03-31T15:54:55.021Z,98668.59
2023-03-31T15:57:31.441Z,98666.22
2023-03-31T16:00:00.885Z,98724.06
2023-03-31T16:02:39.303Z,98623.25
2023-03-31T16:05:10.874Z,98683.81
2023-03-31T16:07:43.082Z,98652.66
2023-03-31T16:10:16.901Z,98687.81
2023-03-31T16:13:04.319Z,98663.00
2023-03-31T16:15:31.964Z,98659.91
2023-03-31T16:18:07.731Z,98607.16
2023-03-31T16:20:41.406Z,98636.75
2023-03-31T16:23:27.510Z,98614.78
2023-03-31T16:25:55.137Z,98601.50
2023-03-31T16:28:27.206Z,98628.44
2023-03-31T16:30:55.073Z,98643.94
2023-03-31T16:33:24.811Z,98611.72
2023-03-31T16:35:53.955Z,98617.13
2023-03-31T16:38:22.483Z,98648.78
2023-03-31T16:40:51.024Z,98625.66
2023-03-31T16:43:19.862Z,98610.63
2023-03-31T16:45:48.472Z,98605.41
2023-03-31T16:48:17.738Z,98609.22
2023-03-31T16:50:49.807Z,98620.13
2023-03-31T16:53:20.830Z,98599.94
2023-03-31T16:55:48.501Z,98599.63
2023-03-31T16:58:18.250Z,98607.56
2023-03-31T17:00:46.278Z,98574.34
2023-03-31T17:03:15.082Z,98599.22
2023-03-31T17:05:46.874Z,98618.72
2023-03-31T17:08:15.137Z,98605.69
2023-03-31T17:10:43.107Z,98599.53
2023-03-31T17:13:10.545Z,98574.66
2023-03-31T17:15:38.262Z,98577.31
2023-03-31T17:18:05.755Z,98586.97
2023-03-31T17:20:34.482Z,98587.00
2023-03-31T17:23:03.302Z,98588.28
2023-03-31T17:25:31.764Z,98577.19
2023-03-31T17:28:01.722Z,98575.03
2023-03-31T17:30:29.134Z,98572.72
2023-03-31T17:32:59.963Z,98600.41
2023-03-31T17:35:27.349Z,98596.88
2023-03-31T17:37:55.615Z,98576.00
2023-03-31T17:40:25.194Z,98587.81
2023-03-31T17:42:54.288Z,98618.66
2023-03-31T17:45:21.918Z,98588.25
2023-03-31T17:47:49.216Z,98605.16
2023-03-31T17:50:16.606Z,98650.63
2023-03-31T17:52:44.022Z,98611.94
2023-03-31T17:55:11.844Z,98578.88
2023-03-31T17:57:40.851Z,98599.03
2023-03-31T18:00:10.106Z,98600.81
2023-03-31T18:02:38.100Z,98576.34
2023-03-31T18:05:07.411Z,98580.69
2023-03-31T18:07:35.162Z,98540.47
2023-03-31T18:10:02.710Z,98625.38
2023-03-31T18:12:30.546Z,98580.66
2023-03-31T18:14:57.858Z,98587.47
2023-03-31T18:17:25.314Z,98589.88
2023-03-31T18:19:52.739Z,98600.19
2023-03-31T18:22:20.000Z,98591.09
2023-03-31T18:24:47.651Z,98616.06
2023-03-31T18:27:14.958Z,98598.91
2023-03-31T18:29:42.233Z,98628.00
2023-03-31T18:32:10.319Z,98619.47
2023-03-31T18:34:38.693Z,98595.34
2023-03-31T18:37:06.007Z,98610.66
2023-03-31T18:39:33.252Z,98635.97
2023-03-31T18:42:00.617Z,98632.66
2023-03-31T18:44:28.007Z,98602.28
2023-03-31T18:46:55.451Z,98616.34
2023-03-31T18:49:23.062Z,98606.97
2023-03-31T18:51:50.354Z,98615.16
2023-03-31T18:54:17.907Z,98600.44
2023-03-31T18:56:45.351Z,98643.25
2023-03-31T18:59:12.799Z,98607.75
2023-03-31T19:01:40.585Z,98617.81
2023-03-31T19:04:08.429Z,98613.97
2023-03-31T19:06:35.932Z,98612.56
2023-03-31T19:09:03.676Z,98630.69
2023-03-31T19:11:31.268Z,98601.78
2023-03-31T19:13:58.490Z,98633.13
2023-03-31T19:16:27.415Z,98641.94
2023-03-31T19:18:54.901Z,98631.56
2023-03-31T19:21:22.620Z,98621.56
2023-03-31T19:23:49.937Z,98642.97
2023-03-31T19:26:19.795Z,98641.50
2023-03-31T19:28:48.401Z,98653.72
2023-03-31T19:31:15.859Z,98670.72
2023-03-31T19:33:43.215Z,98620.53
2023-03-31T19:36:10.605Z,98600.06
2023-03-31T19:38:37.968Z,98607.97
2023-03-31T19:41:06.353Z,98653.59
2023-03-31T19:43:34.236Z,98602.88
2023-03-31T19:46:01.939Z,98620.00
2023-03-31T19:48:31.729Z,98574.63
2023-03-31T19:51:04.659Z,98610.34
2023-03-31T19:53:32.381Z,98586.78
2023-03-31T19:56:01.247Z,98605.72
2023-03-31T19:58:29.509Z,98604.41
2023-03-31T20:00:57.478Z,98601.28
2023-03-31T20:03:25.693Z,98608.00
2023-03-31T20:05:54.399Z,98587.97
2023-03-31T20:08:21.664Z,98580.28
2023-03-31T20:10:49.635Z,98623.31
2023-03-31T20:13:18.749Z,98585.94
2023-03-31T20:15:46.943Z,98586.66
2023-03-31T20:18:14.315Z,98582.72
2023-03-31T20:20:41.789Z,98572.31
2023-03-31T20:23:09.032Z,98566.25
2023-03-31T20:25:38.056Z,98563.69
2023-03-31T20:28:05.369Z,98558.34
2023-03-31T20:30:32.654Z,98560.53
2023-03-31T20:32:59.978Z,98552.53
2023-03-31T20:35:27.484Z,98540.91
2023-03-31T20:37:55.683Z,98509.03
2023-03-31T20:40:22.961Z,98524.16
2023-03-31T20:42:50.593Z,98540.38
2023-03-31T20:45:17.924Z,98511.53
2023-03-31T20:47:47.077Z,98499.09
2023-03-31T20:50:16.087Z,98506.63
2023-03-31T20:52:44.981Z,98473.38
2023-03-31T20:55:12.220Z,98474.41
2023-03-31T20:57:39.492Z,98490.38
2023-03-31T21:00:07.568Z,98488.88
2023-03-31T21:02:35.181Z,98509.25
2023-03-31T21:05:05.348Z,98521.34
2023-03-31T21:07:35.784Z,98502.78
2023-03-31T21:10:08.869Z,98531.63
2023-03-31T21:12:36.492Z,98498.28
2023-03-31T21:15:04.113Z,98492.97
2023-03-31T21:17:31.385Z,98526.09
2023-03-31T21:19:58.715Z,98509.56
2023-03-31T21:22:27.822Z,98515.53
2023-03-31T21:24:55.661Z,98492.81
2023-03-31T21:27:23.113Z,98499.88
2023-03-31T21:29:53.199Z,98526.03
2023-03-31T21:32:20.633Z,98501.47
2023-03-31T21:34:47.932Z,98495.53
2023-03-31T21:37:15.233Z,98494.28
2023-03-31T21:39:42.517Z,98494.97
2023-03-31T21:42:09.792Z,98506.84
2023-03-31T21:44:37.064Z,98502.38
2023-03-31T21:47:04.451Z,98495.66
2023-03-31T21:49:32.844Z,98498.75
2023-03-31T21:52:00.391Z,98496.44
2023-03-31T21:54:27.686Z,98524.66
2023-03-31T21:56:54.961Z,98486.41
2023-03-31T21:59:22.302Z,98491.13
2023-03-31T22:01:49.574Z,98486.09
2023-03-31T22:04:17.510Z,98506.25
2023-03-31T22:06:44.714Z,98495.59
2023-03-31T22:09:12.019Z,98473.09
2023-03-31T22:11:39.289Z,98506.47
2023-03-31T22:14:06.936Z,98490.28
2023-03-31T22:16:34.338Z,98499.09
2023-03-31T22:19:01.618Z,98506.75
2023-03-31T22:21:39.934Z,98468.47
2023-03-31T22:24:11.129Z,98463.13
2023-03-31T22:26:38.354Z,98476.41
2023-03-31T22:29:05.782Z,98490.66
2023-03-31T22:31:33.116Z,98480.00
2023-03-31T22:34:00.373Z,98469.06
2023-03-31T22:36:27.724Z,98481.03
2023-03-31T22:38:55.051Z,98479.53
2023-03-31T22:41:22.708Z,98483.16
2023-03-31T22:43:51.441Z,98477.88
2023-03-31T22:46:18.846Z,98485.28
2023-03-31T22:48:48.620Z,98471.03
2023-03-31T22:51:16.716Z,98500.25
2023-03-31T22:53:43.894Z,98503.63
2023-03-31T22:56:12.645Z,98477.34
2023-03-31T22:58:41.036Z,98461.13
2023-03-31T23:01:12.246Z,98473.69
2023-03-31T23:03:39.619Z,98452.03
2023-03-31T23:06:07.371Z,98485.31
2023-03-31T23:08:36.022Z,98459.50
2023-03-31T23:11:04.198Z,98461.59
2023-03-31T23:13:31.714Z,98497.22
2023-03-31T23:16:07.032Z,98494.38
2023-03-31T23:18:34.663Z,98491.66
2023-03-31T23:21:05.988Z,98464.47
2023-03-31T23:23:33.400Z,98460.41
2023-03-31T23:26:01.655Z,98488.81
2023-03-31T23:28:28.865Z,98493.09
2023-03-31T23:30:57.203Z,98446.88
2023-03-31T23:33:24.786Z,98454.56
2023-03-31T23:35:53.479Z,98457.72
2023-03-31T23:38:21.023Z,98468.81
2023-03-31T23:40:48.718Z,98454.44
2023-03-31T23:43:16.699Z,98437.84
2023-03-31T23:45:43.935Z,98444.31
2023-03-31T23:48:11.252Z,98454.88
2023-03-31T23:50:38.898Z,98462.00
2023-03-31T23:53:06.173Z,98443.19
2023-03-31T23:55:33.831Z,98451.00
2023-03-31T23:58:01.671Z,98439.34
